Time;durP1;ratioP1;P1;durP2;ratioP2;P2;SDS_P1;SDS_P2;PMS_P1;PMS_P2;Temp;Humidity;BMP_temperature;BMP_pressure;BME280_temperature;BME280_humidity;BME280_pressure;Samples;Min_cycle;Max_cycle;Signal;HPM_P1;HPM_P2
2023/01/26 00:00:06;;;;;;;52.22;16.00;;;0.30;95.20;;;;;;5075726;28;20020;-78
2023/01/26 00:02:31;;;;;;;27.48;11.73;;;0.30;95.30;;;;;;5093403;28;20074;-77
2023/01/26 00:04:57;;;;;;;35.97;10.55;;;0.30;95.20;;;;;;5075635;28;20025;-77
2023/01/26 00:07:22;;;;;;;38.17;13.15;;;0.30;95.10;;;;;;5093062;28;20037;-77
2023/01/26 00:09:48;;;;;;;50.60;16.42;;;0.30;95.10;;;;;;5093177;28;20037;-77
2023/01/26 00:12:14;;;;;;;49.95;16.50;;;0.30;95.20;;;;;;5058796;28;20028;-77
2023/01/26 00:14:48;;;;;;;45.33;14.18;;;0.40;95.30;;;;;;5075457;28;20028;-77
2023/01/26 00:17:24;;;;;;;43.30;13.57;;;0.30;95.30;;;;;;5075460;28;20028;-77
2023/01/26 00:19:52;;;;;;;50.72;13.68;;;0.30;95.20;;;;;;5075561;28;20055;-77
2023/01/26 00:22:17;;;;;;;44.20;16.17;;;0.30;95.50;;;;;;5075371;28;20045;-77
2023/01/26 00:24:43;;;;;;;40.28;12.10;;;0.30;95.60;;;;;;5093277;28;20032;-78
2023/01/26 00:27:08;;;;;;;38.75;12.32;;;0.30;95.60;;;;;;5075402;28;20032;-78
2023/01/26 00:29:34;;;;;;;51.85;16.92;;;0.30;95.60;;;;;;5093142;28;20025;-77
2023/01/26 00:31:59;;;;;;;38.97;12.32;;;0.30;95.50;;;;;;5093065;28;20086;-77
2023/01/26 00:34:25;;;;;;;32.10;11.75;;;0.30;95.50;;;;;;5075119;28;20053;-78
2023/01/26 00:36:51;;;;;;;40.20;11.07;;;0.30;95.50;;;;;;5093000;28;20024;-77
2023/01/26 00:39:17;;;;;;;41.58;12.95;;;0.30;95.60;;;;;;5075142;28;20036;-77
2023/01/26 00:44:27;;;;;;;41.13;14.25;;;0.20;95.80;;;;;;5093079;28;20044;-78
2023/01/26 00:46:53;;;;;;;43.05;14.00;;;0.20;95.80;;;;;;5058471;28;20393;-77
2023/01/26 00:49:18;;;;;;;53.63;16.08;;;0.20;95.90;;;;;;5075208;28;20033;-77
2023/01/26 00:51:44;;;;;;;43.08;13.63;;;0.30;95.90;;;;;;5075210;28;20037;-77
2023/01/26 00:54:09;;;;;;;42.35;14.88;;;0.30;95.90;;;;;;5092838;28;20061;-77
2023/01/26 00:56:35;;;;;;;28.95;10.70;;;0.30;95.90;;;;;;5075138;28;20021;-78
2023/01/26 00:59:01;;;;;;;41.92;13.45;;;0.30;96.00;;;;;;5092697;28;20041;-77
2023/01/26 01:01:26;;;;;;;33.80;10.20;;;0.30;95.90;;;;;;5075116;28;20051;-77
2023/01/26 01:03:52;;;;;;;45.38;13.68;;;0.30;95.80;;;;;;5058518;28;20478;-77
2023/01/26 01:06:17;;;;;;;47.33;14.60;;;0.30;95.90;;;;;;5075070;28;20035;-77
2023/01/26 01:08:43;;;;;;;48.92;15.50;;;0.40;95.90;;;;;;5092699;28;20063;-77
2023/01/26 01:11:10;;;;;;;38.67;11.38;;;0.40;95.90;;;;;;5092676;28;20028;-78
2023/01/26 01:13:37;;;;;;;50.88;14.57;;;0.50;95.60;;;;;;5092678;28;20055;-78
2023/01/26 01:16:07;;;;;;;45.20;12.32;;;0.40;95.60;;;;;;5075226;28;20036;-77
2023/01/26 01:18:33;;;;;;;44.88;14.38;;;0.40;95.70;;;;;;5075057;28;20035;-78
2023/01/26 01:20:59;;;;;;;32.58;11.18;;;0.40;95.80;;;;;;5095133;28;20036;-78
2023/01/26 01:23:28;;;;;;;28.98;9.32;;;0.30;95.80;;;;;;5078630;28;20033;-77
2023/01/26 01:25:58;;;;;;;31.40;10.63;;;0.30;95.80;;;;;;5096100;28;20044;-78
2023/01/26 01:28:23;;;;;;;30.67;10.45;;;0.30;95.90;;;;;;5096093;28;20032;-77
2023/01/26 01:30:49;;;;;;;35.13;12.77;;;0.30;95.90;;;;;;5078488;28;20029;-77
2023/01/26 01:33:15;;;;;;;42.95;14.05;;;0.30;95.90;;;;;;5061458;28;20131;-77
2023/01/26 01:35:40;;;;;;;33.05;10.95;;;0.30;95.80;;;;;;5095951;28;20055;-78
2023/01/26 01:38:06;;;;;;;33.60;12.48;;;0.30;95.90;;;;;;5095828;28;20033;-77
2023/01/26 01:40:31;;;;;;;40.17;13.32;;;0.30;95.90;;;;;;5078085;28;20037;-77
2023/01/26 01:42:57;;;;;;;51.47;13.20;;;0.30;96.00;;;;;;5061598;28;20028;-78
2023/01/26 01:45:26;;;;;;;48.67;14.60;;;0.40;95.90;;;;;;5078137;28;20025;-78
2023/01/26 01:47:58;;;;;;;39.33;12.85;;;0.40;95.80;;;;;;5095751;28;20025;-78
2023/01/26 01:50:25;;;;;;;40.15;13.05;;;0.40;95.70;;;;;;5078060;28;20020;-77
2023/01/26 01:52:53;;;;;;;34.22;10.52;;;0.50;95.70;;;;;;5095662;28;20024;-77
2023/01/26 01:55:19;;;;;;;46.17;12.55;;;0.50;95.60;;;;;;5095607;28;20028;-77
2023/01/26 01:57:53;;;;;;;42.13;14.13;;;0.50;95.50;;;;;;5077911;28;20088;-77
2023/01/26 02:00:22;;;;;;;35.72;12.35;;;0.50;95.30;;;;;;5077835;28;20028;-77
2023/01/26 02:03:11;;;;;;;42.70;15.43;;;0.50;95.40;;;;;;5077876;28;20055;-78
2023/01/26 02:06:03;;;;;;;44.63;13.30;;;0.50;95.40;;;;;;5077774;28;20035;-78
2023/01/26 02:08:50;;;;;;;36.25;12.75;;;0.50;95.60;;;;;;5095341;28;20031;-78
2023/01/26 02:11:22;;;;;;;35.17;12.70;;;0.50;95.70;;;;;;5077709;28;20074;-77
2023/01/26 02:13:48;;;;;;;38.17;11.43;;;0.50;95.60;;;;;;5095305;28;20145;-77
2023/01/26 02:16:15;;;;;;;43.17;12.73;;;0.50;95.70;;;;;;5095389;28;20029;-78
2023/01/26 02:18:41;;;;;;;42.17;13.73;;;0.50;95.60;;;;;;5095142;28;20055;-77
2023/01/26 02:21:09;;;;;;;42.53;15.27;;;0.50;95.70;;;;;;5095169;28;20024;-78
2023/01/26 02:24:12;;;;;;;36.35;13.48;;;0.50;95.60;;;;;;5077360;28;20031;-77
2023/01/26 02:26:38;;;;;;;38.08;13.18;;;0.50;95.70;;;;;;5064377;28;20039;-77
2023/01/26 02:29:10;;;;;;;47.90;13.77;;;0.50;95.90;;;;;;5094960;28;20052;-77
2023/01/26 02:31:37;;;;;;;30.15;9.07;;;0.50;95.90;;;;;;5094903;28;20031;-77
2023/01/26 02:34:03;;;;;;;48.72;13.43;;;0.50;95.80;;;;;;5094611;28;20074;-77
2023/01/26 02:36:31;;;;;;;42.05;12.70;;;0.50;95.80;;;;;;5094748;28;20059;-77
2023/01/26 02:39:11;;;;;;;38.42;12.40;;;0.50;96.00;;;;;;5094683;28;20028;-77
2023/01/26 02:44:23;;;;;;;37.65;12.10;;;0.50;96.10;;;;;;5094860;28;20039;-77
2023/01/26 02:46:48;;;;;;;45.10;14.32;;;0.50;96.00;;;;;;5077080;28;20035;-77
2023/01/26 02:51:58;;;;;;;55.55;15.38;;;0.50;96.10;;;;;;5094635;28;20047;-77
2023/01/26 02:57:08;;;;;;;45.95;14.93;;;0.60;96.30;;;;;;5079602;28;20038;-77
2023/01/26 02:59:33;;;;;;;48.92;16.23;;;0.50;96.30;;;;;;5076799;28;20052;-77
2023/01/26 03:01:59;;;;;;;36.80;12.40;;;0.60;96.30;;;;;;5076755;28;20055;-77
2023/01/26 03:04:25;;;;;;;44.88;13.90;;;0.70;96.10;;;;;;5076586;28;20029;-77
2023/01/26 03:06:50;;;;;;;38.83;12.93;;;0.70;96.10;;;;;;5076474;28;20024;-77
2023/01/26 03:09:16;;;;;;;45.03;15.27;;;0.70;96.00;;;;;;5094058;28;20029;-77
2023/01/26 03:11:41;;;;;;;39.08;12.65;;;0.70;96.00;;;;;;5076491;28;20047;-77
2023/01/26 03:14:12;;;;;;;45.80;13.73;;;0.70;96.00;;;;;;5094171;28;20036;-78
2023/01/26 03:16:38;;;;;;;40.10;14.15;;;0.70;96.00;;;;;;5094214;28;20033;-77
2023/01/26 03:27:26;;;;;;;40.53;12.55;;;0.70;96.20;;;;;;5093963;28;20039;-77
2023/01/26 03:29:52;;;;;;;33.03;12.55;;;0.70;96.10;;;;;;5093914;28;20032;-77
2023/01/26 03:32:18;;;;;;;37.67;12.15;;;0.70;96.10;;;;;;5093744;28;20021;-78
2023/01/26 03:34:43;;;;;;;35.88;12.82;;;0.70;96.40;;;;;;5075898;28;20048;-77
2023/01/26 03:37:09;;;;;;;39.05;11.93;;;0.70;96.10;;;;;;5076002;28;20025;-77
2023/01/26 03:56:17;;;;;;;33.13;11.52;;;0.80;95.90;;;;;;5078613;28;20071;-77
2023/01/26 03:58:52;;;;;;;35.30;10.93;;;0.80;95.80;;;;;;5093397;28;20465;-77
2023/01/26 04:01:24;;;;;;;28.75;10.48;;;0.80;95.80;;;;;;5093445;28;20028;-78
2023/01/26 04:09:21;;;;;;;37.35;12.23;;;0.90;95.80;;;;;;5093303;28;20039;-77
2023/01/26 04:11:47;;;;;;;36.53;11.20;;;0.90;95.80;;;;;;5059038;28;20025;-77
2023/01/26 04:22:29;;;;;;;31.33;10.52;;;1.00;95.50;;;;;;5093442;28;20086;-77
2023/01/26 04:24:56;;;;;;;31.15;11.75;;;1.10;95.40;;;;;;5075568;28;20028;-77
2023/01/26 04:27:22;;;;;;;38.35;11.18;;;1.10;95.30;;;;;;5075317;28;20029;-77
2023/01/26 04:29:48;;;;;;;43.35;13.32;;;1.10;95.20;;;;;;5093135;28;20024;-77
2023/01/26 04:32:14;;;;;;;36.67;11.02;;;1.20;95.20;;;;;;5075414;28;20036;-77
2023/01/26 04:34:40;;;;;;;38.15;12.00;;;1.20;95.20;;;;;;5075364;28;20079;-77
2023/01/26 04:37:05;;;;;;;35.20;10.30;;;1.20;95.20;;;;;;5093117;28;20036;-77
2023/01/26 04:39:31;;;;;;;32.63;10.90;;;1.30;95.20;;;;;;5075367;28;20032;-77
2023/01/26 04:41:57;;;;;;;37.05;10.50;;;1.30;95.10;;;;;;5075343;28;20021;-77
2023/01/26 04:44:22;;;;;;;33.63;10.52;;;1.40;95.00;;;;;;5075340;28;20532;-77
2023/01/26 04:46:48;;;;;;;34.35;10.40;;;1.40;95.00;;;;;;5075283;28;20037;-77
2023/01/26 04:49:14;;;;;;;32.40;11.07;;;1.40;95.00;;;;;;5092895;28;20040;-77
2023/01/26 04:51:40;;;;;;;28.80;9.60;;;1.40;95.00;;;;;;5075359;28;20048;-77
2023/01/26 04:54:06;;;;;;;33.20;11.02;;;1.40;95.00;;;;;;5092865;28;20029;-77
2023/01/26 04:56:34;;;;;;;33.45;9.63;;;1.50;94.90;;;;;;5078675;28;20040;-77
2023/01/26 04:59:02;;;;;;;31.92;9.40;;;1.50;94.90;;;;;;5096591;28;20095;-77
2023/01/26 05:01:29;;;;;;;27.45;9.63;;;1.50;94.90;;;;;;5096603;28;20019;-77
2023/01/26 05:03:55;;;;;;;27.55;9.23;;;1.50;94.80;;;;;;5096593;28;20028;-77
2023/01/26 05:06:20;;;;;;;30.13;9.15;;;1.50;94.70;;;;;;5096548;28;20045;-77
2023/01/26 05:08:46;;;;;;;30.52;9.45;;;1.50;94.70;;;;;;5078822;28;20033;-77
2023/01/26 05:11:12;;;;;;;29.23;8.63;;;1.60;94.70;;;;;;5078727;28;20170;-77
2023/01/26 05:13:38;;;;;;;20.92;8.18;;;1.60;94.70;;;;;;5096377;28;20024;-77
2023/01/26 05:16:04;;;;;;;27.85;8.02;;;1.60;94.70;;;;;;5096343;28;20017;-77
2023/01/26 05:18:30;;;;;;;28.63;8.68;;;1.60;94.60;;;;;;5096250;28;20044;-77
2023/01/26 05:20:56;;;;;;;25.73;7.85;;;1.60;94.60;;;;;;5096259;28;20013;-77
2023/01/26 05:23:22;;;;;;;27.95;8.43;;;1.60;94.50;;;;;;5096326;28;20043;-77
2023/01/26 05:25:48;;;;;;;27.23;8.35;;;1.60;94.50;;;;;;5096187;28;20040;-77
2023/01/26 05:28:13;;;;;;;22.50;7.43;;;1.60;94.50;;;;;;5096115;28;20039;-77
2023/01/26 05:30:39;;;;;;;19.83;6.65;;;1.70;94.50;;;;;;5096068;28;20040;-77
2023/01/26 05:33:07;;;;;;;27.70;8.50;;;1.70;94.50;;;;;;5078128;28;20044;-77
2023/01/26 05:35:33;;;;;;;26.08;7.72;;;1.60;94.50;;;;;;5095983;28;20052;-77
2023/01/26 05:37:58;;;;;;;24.15;7.75;;;1.70;94.60;;;;;;5095923;28;20074;-77
2023/01/26 05:40:25;;;;;;;21.73;7.20;;;1.70;94.50;;;;;;5095932;28;20028;-77
2023/01/26 05:42:51;;;;;;;24.83;6.80;;;1.70;94.60;;;;;;5078328;28;20080;-77
2023/01/26 05:45:17;;;;;;;25.55;7.50;;;1.70;94.50;;;;;;5095783;28;20024;-77
2023/01/26 05:47:43;;;;;;;26.30;7.85;;;1.70;94.50;;;;;;5078094;28;20028;-77
2023/01/26 05:50:10;;;;;;;22.00;6.68;;;1.80;94.50;;;;;;5078068;28;20033;-77
2023/01/26 05:52:36;;;;;;;19.23;6.45;;;1.80;94.50;;;;;;5095694;28;20028;-77
2023/01/26 05:55:02;;;;;;;22.83;7.30;;;1.80;94.40;;;;;;5061436;28;20035;-77
2023/01/26 05:57:28;;;;;;;21.13;7.60;;;1.80;94.40;;;;;;5095174;28;20084;-77
2023/01/26 05:59:53;;;;;;;18.40;6.38;;;1.80;94.40;;;;;;5095550;28;20021;-77
2023/01/26 06:02:19;;;;;;;21.33;6.57;;;1.80;94.50;;;;;;5095474;28;20029;-77
2023/01/26 06:04:45;;;;;;;21.38;6.82;;;1.70;94.40;;;;;;5077768;28;20013;-77
2023/01/26 06:07:12;;;;;;;22.80;7.68;;;1.70;94.40;;;;;;5095031;28;20426;-77
2023/01/26 06:09:38;;;;;;;20.58;6.78;;;1.80;94.40;;;;;;5095304;28;20088;-77
2023/01/26 06:12:04;;;;;;;22.58;6.95;;;1.80;94.40;;;;;;5095350;28;20027;-78
2023/01/26 06:14:30;;;;;;;22.92;8.15;;;1.80;94.40;;;;;;5095287;28;20016;-78
2023/01/26 06:16:56;;;;;;;22.92;6.88;;;1.80;94.40;;;;;;5077609;28;20032;-77
2023/01/26 06:19:21;;;;;;;19.92;7.05;;;1.80;94.30;;;;;;5077621;28;20059;-77
2023/01/26 06:21:47;;;;;;;24.30;7.93;;;1.80;94.30;;;;;;5060800;28;20025;-77
2023/01/26 06:24:13;;;;;;;21.77;7.40;;;1.90;94.40;;;;;;5077358;28;20028;-77
2023/01/26 06:26:38;;;;;;;21.73;6.72;;;1.80;94.30;;;;;;5095087;28;20024;-78
2023/01/26 06:29:04;;;;;;;22.38;6.78;;;1.80;94.40;;;;;;5094972;28;20033;-77
2023/01/26 06:31:30;;;;;;;21.15;6.63;;;1.90;94.30;;;;;;5077502;28;20029;-77
2023/01/26 06:33:55;;;;;;;23.10;7.35;;;1.90;94.30;;;;;;5094652;28;20048;-77
2023/01/26 06:36:21;;;;;;;21.17;5.88;;;1.90;94.30;;;;;;5094825;28;20086;-77
2023/01/26 06:38:49;;;;;;;17.40;6.32;;;1.90;94.30;;;;;;5060295;28;20370;-77
2023/01/26 06:41:16;;;;;;;17.55;5.95;;;1.90;94.20;;;;;;5094777;28;20055;-77
2023/01/26 06:43:44;;;;;;;15.63;6.07;;;1.90;94.20;;;;;;5094722;28;20048;-77
2023/01/26 06:46:11;;;;;;;21.77;6.70;;;1.90;94.20;;;;;;5077038;28;20036;-77
2023/01/26 06:48:37;;;;;;;19.23;7.05;;;1.90;94.20;;;;;;5094594;28;20021;-77
2023/01/26 06:51:15;;;;;;;19.65;6.30;;;1.90;94.20;;;;;;5094543;28;20032;-77
2023/01/26 06:53:54;;;;;;;16.85;6.32;;;1.90;94.30;;;;;;5076739;28;20034;-77
2023/01/26 06:56:21;;;;;;;21.40;6.70;;;2.00;94.30;;;;;;5094425;28;20025;-77
2023/01/26 06:58:46;;;;;;;20.52;7.15;;;1.90;94.30;;;;;;5076799;28;20397;-77
2023/01/26 07:01:25;;;;;;;17.33;6.63;;;1.90;94.30;;;;;;5094341;28;20051;-77
2023/01/26 07:03:53;;;;;;;19.67;5.60;;;1.90;94.30;;;;;;5094344;28;20071;-77
2023/01/26 07:06:19;;;;;;;20.50;6.35;;;1.90;94.30;;;;;;5094230;28;20046;-77
2023/01/26 07:08:45;;;;;;;19.50;6.63;;;1.90;94.30;;;;;;5094112;28;20048;-77
2023/01/26 07:11:12;;;;;;;21.48;6.15;;;1.90;94.40;;;;;;5094160;28;20031;-77
2023/01/26 07:13:38;;;;;;;21.65;7.75;;;2.00;94.40;;;;;;5094069;28;20016;-77
2023/01/26 07:16:12;;;;;;;22.15;6.78;;;2.00;94.40;;;;;;5094078;28;20055;-78
2023/01/26 07:18:37;;;;;;;21.17;6.55;;;2.00;94.40;;;;;;5093258;28;20025;-77
2023/01/26 07:21:04;;;;;;;19.77;6.05;;;2.00;94.40;;;;;;5076343;28;20031;-78
2023/01/26 07:23:30;;;;;;;22.58;7.43;;;2.00;94.40;;;;;;5093944;28;20032;-78
2023/01/26 07:25:56;;;;;;;24.90;7.90;;;2.00;94.40;;;;;;5093882;28;20025;-77
2023/01/26 07:28:22;;;;;;;26.27;7.85;;;2.10;94.30;;;;;;5093848;28;20054;-77
2023/01/26 07:30:48;;;;;;;20.83;6.40;;;2.00;94.30;;;;;;5093779;28;20374;-77
2023/01/26 07:33:14;;;;;;;25.45;7.38;;;2.00;94.30;;;;;;5075729;28;20078;-77
2023/01/26 07:35:40;;;;;;;22.75;7.68;;;2.10;94.40;;;;;;5093686;28;20024;-77
2023/01/26 07:38:05;;;;;;;22.45;7.40;;;2.10;94.30;;;;;;5093635;28;20058;-77
2023/01/26 07:40:31;;;;;;;23.45;7.57;;;2.10;94.30;;;;;;5076113;28;20031;-77
2023/01/26 07:42:59;;;;;;;26.98;7.70;;;2.10;94.30;;;;;;5093618;28;20024;-77
2023/01/26 07:45:28;;;;;;;21.55;6.82;;;2.10;94.30;;;;;;5093592;28;20017;-77
2023/01/26 07:47:54;;;;;;;24.30;8.13;;;2.10;94.30;;;;;;5093556;28;20025;-77
2023/01/26 07:50:20;;;;;;;24.27;7.93;;;2.10;94.30;;;;;;5093675;28;20028;-78
2023/01/26 07:52:46;;;;;;;21.73;7.63;;;2.10;94.30;;;;;;5093487;28;20045;-78
2023/01/26 07:55:13;;;;;;;23.20;7.22;;;2.10;94.30;;;;;;5076070;28;20032;-78
2023/01/26 07:57:39;;;;;;;25.17;7.07;;;2.10;94.30;;;;;;5093368;28;20409;-78
2023/01/26 08:00:06;;;;;;;28.38;9.52;;;2.10;94.40;;;;;;5093384;28;20024;-77
2023/01/26 08:02:31;;;;;;;22.05;7.22;;;2.10;94.40;;;;;;5093364;28;20024;-78
2023/01/26 08:04:58;;;;;;;20.55;6.70;;;2.10;94.40;;;;;;5093513;28;20046;-77
2023/01/26 08:07:23;;;;;;;24.27;6.88;;;2.20;94.40;;;;;;5093311;28;20040;-77
2023/01/26 08:09:49;;;;;;;25.42;7.38;;;2.20;94.40;;;;;;5093218;28;20039;-77
2023/01/26 08:12:14;;;;;;;28.05;7.78;;;2.20;94.40;;;;;;5093287;28;20488;-77
2023/01/26 08:14:41;;;;;;;23.38;7.63;;;2.20;94.50;;;;;;5093257;28;20029;-77
2023/01/26 08:17:06;;;;;;;19.10;6.55;;;2.20;94.40;;;;;;5093384;28;20025;-77
2023/01/26 08:19:32;;;;;;;21.38;6.25;;;2.20;94.40;;;;;;5093113;28;20032;-78
2023/01/26 08:21:58;;;;;;;23.75;7.13;;;2.20;94.40;;;;;;5093193;28;20036;-78
2023/01/26 08:24:25;;;;;;;23.10;6.70;;;2.20;94.40;;;;;;5093173;28;20024;-78
2023/01/26 08:26:50;;;;;;;28.25;8.30;;;2.20;94.40;;;;;;5075749;28;20025;-78
2023/01/26 08:29:19;;;;;;;25.15;7.05;;;2.20;94.40;;;;;;5076987;28;20035;-78
2023/01/26 08:31:45;;;;;;;28.40;7.18;;;2.20;94.40;;;;;;5097429;28;20031;-78
2023/01/26 08:34:10;;;;;;;24.63;7.40;;;2.20;94.50;;;;;;5079341;28;20044;-78
2023/01/26 08:36:38;;;;;;;26.58;8.07;;;2.30;94.50;;;;;;5097157;28;20039;-78
2023/01/26 08:39:04;;;;;;;19.55;6.78;;;2.30;94.50;;;;;;5097002;28;20024;-78
2023/01/26 08:41:30;;;;;;;23.25;7.20;;;2.30;94.50;;;;;;5097083;28;20418;-78
2023/01/26 08:43:58;;;;;;;25.25;7.35;;;2.30;94.50;;;;;;5097000;28;20017;-78
2023/01/26 08:46:26;;;;;;;24.15;6.93;;;2.40;94.50;;;;;;5096926;28;20012;-78
2023/01/26 08:48:52;;;;;;;24.45;7.82;;;2.40;94.40;;;;;;5096862;28;20093;-78
2023/01/26 08:51:18;;;;;;;20.45;7.07;;;2.40;94.40;;;;;;5096892;28;20028;-78
2023/01/26 08:53:44;;;;;;;24.88;7.30;;;2.40;94.50;;;;;;5096694;28;20485;-78
2023/01/26 08:56:11;;;;;;;23.73;6.63;;;2.40;94.40;;;;;;5079117;28;20024;-78
2023/01/26 08:58:38;;;;;;;28.02;7.53;;;2.40;94.40;;;;;;5096639;28;20024;-78
2023/01/26 09:01:09;;;;;;;24.38;6.88;;;2.50;94.40;;;;;;5096634;28;20052;-78
2023/01/26 09:03:35;;;;;;;22.65;7.07;;;2.50;94.70;;;;;;5096713;28;20040;-78
2023/01/26 09:06:01;;;;;;;21.48;7.25;;;2.50;94.30;;;;;;5096563;28;20025;-78
2023/01/26 09:08:27;;;;;;;21.95;7.13;;;2.50;94.30;;;;;;5096421;28;20024;-78
2023/01/26 09:10:52;;;;;;;29.15;7.50;;;2.50;94.30;;;;;;5096446;28;20044;-78
2023/01/26 09:13:18;;;;;;;21.75;7.13;;;2.50;94.30;;;;;;5096567;28;20477;-78
2023/01/26 09:15:44;;;;;;;25.88;7.47;;;2.50;94.30;;;;;;5096527;28;20028;-78
2023/01/26 09:18:10;;;;;;;26.88;7.25;;;2.50;94.30;;;;;;5078533;28;20043;-77
2023/01/26 09:20:51;;;;;;;23.00;7.53;;;2.50;94.40;;;;;;5096309;28;20028;-78
2023/01/26 09:23:17;;;;;;;19.08;6.75;;;2.50;94.40;;;;;;5096315;28;20051;-77
2023/01/26 09:25:43;;;;;;;31.42;9.13;;;2.50;94.40;;;;;;5078493;28;20029;-77
2023/01/26 09:28:09;;;;;;;27.10;7.90;;;2.50;94.40;;;;;;5061802;28;20040;-78
2023/01/26 09:30:35;;;;;;;27.90;6.97;;;2.60;94.50;;;;;;5096110;28;20025;-78
2023/01/26 09:33:03;;;;;;;27.73;8.18;;;2.60;94.50;;;;;;5095790;28;20083;-78
2023/01/26 09:35:29;;;;;;;30.95;8.70;;;2.60;94.50;;;;;;5096070;28;20032;-78
2023/01/26 09:37:55;;;;;;;29.40;6.85;;;2.60;94.50;;;;;;5095957;28;20419;-78
2023/01/26 09:40:35;;;;;;;22.50;7.18;;;2.70;94.50;;;;;;5095147;28;20024;-78
2023/01/26 09:43:16;;;;;;;29.45;7.97;;;2.70;94.50;;;;;;5096076;28;20040;-78
2023/01/26 09:45:59;;;;;;;28.52;7.88;;;2.70;94.50;;;;;;5095925;28;20103;-78
2023/01/26 09:48:28;;;;;;;;;;;2.70;94.40;;;;;;5096234;28;20036;-77
2023/01/26 09:51:01;;;;;;;25.83;7.78;;;2.70;94.40;;;;;;5078013;28;19904;-77
2023/01/26 09:53:39;;;;;;;23.70;7.63;;;2.70;94.40;;;;;;5095765;28;20028;-78
2023/01/26 09:56:09;;;;;;;32.15;8.02;;;2.70;94.40;;;;;;5077916;28;20115;-78
2023/01/26 09:58:38;;;;;;;33.25;8.20;;;2.70;94.50;;;;;;5077775;28;20021;-78
2023/01/26 10:01:08;;;;;;;35.92;9.18;;;2.70;94.50;;;;;;5095537;28;20050;-78
2023/01/26 10:04:02;;;;;;;30.48;9.18;;;2.70;94.50;;;;;;5095552;28;20109;-77
2023/01/26 10:06:30;;;;;;;26.60;8.27;;;2.70;94.50;;;;;;5085569;28;20028;-77
2023/01/26 10:09:00;;;;;;;30.40;8.32;;;2.80;94.50;;;;;;5077786;28;20025;-78
2023/01/26 10:11:46;;;;;;;34.05;8.60;;;2.80;94.50;;;;;;5077775;28;20025;-78
2023/01/26 10:14:32;;;;;;;35.10;9.20;;;2.80;94.60;;;;;;5095460;28;20050;-77
2023/01/26 10:16:59;;;;;;;37.97;8.77;;;2.80;94.70;;;;;;5077594;28;20085;-77
2023/01/26 10:19:27;;;;;;;30.05;8.68;;;2.80;94.70;;;;;;5095243;28;20025;-78
2023/01/26 10:21:56;;;;;;;29.85;9.00;;;2.80;94.70;;;;;;5095181;28;20052;-78
2023/01/26 10:24:25;;;;;;;35.22;9.73;;;2.80;94.70;;;;;;5095110;28;20080;-77
2023/01/26 10:26:55;;;;;;;36.28;9.05;;;2.90;94.60;;;;;;5061131;28;20032;-78
2023/01/26 10:29:21;;;;;;;32.50;9.13;;;2.90;94.70;;;;;;5095099;28;20040;-77
2023/01/26 10:31:47;;;;;;;35.45;9.23;;;2.90;94.70;;;;;;5094840;28;20028;-77
2023/01/26 10:34:16;;;;;;;36.58;8.88;;;2.90;94.80;;;;;;5094737;28;20075;-78
2023/01/26 10:36:44;;;;;;;30.67;9.02;;;3.00;94.70;;;;;;5094802;28;20016;-78
2023/01/26 10:39:12;;;;;;;41.83;8.98;;;3.00;95.10;;;;;;5094772;28;20032;-77
2023/01/26 10:41:38;;;;;;;40.15;10.10;;;3.00;94.70;;;;;;5077061;28;20017;-78
2023/01/26 10:44:21;;;;;;;36.25;9.48;;;3.00;94.70;;;;;;5077174;28;20021;-78
2023/01/26 10:47:05;;;;;;;37.70;9.32;;;3.10;94.80;;;;;;5094822;28;20103;-78
2023/01/26 10:49:30;;;;;;;36.95;10.30;;;3.10;94.70;;;;;;5094651;28;20024;-78
2023/01/26 10:52:18;;;;;;;36.88;9.80;;;3.10;94.70;;;;;;5093888;28;20055;-78
2023/01/26 10:54:45;;;;;;;33.95;10.20;;;3.10;94.70;;;;;;5094471;28;20095;-77
2023/01/26 10:57:16;;;;;;;39.25;9.18;;;3.20;94.80;;;;;;5094419;28;20021;-77
2023/01/26 11:00:07;;;;;;;40.47;9.60;;;3.20;94.70;;;;;;5094368;28;20024;-77
2023/01/26 11:02:34;;;;;;;40.35;9.40;;;3.20;94.70;;;;;;5094373;28;20403;-76
2023/01/26 11:05:06;;;;;;;35.92;9.40;;;3.20;94.70;;;;;;5094246;28;20020;-76
2023/01/26 11:07:39;;;;;;;43.97;10.43;;;3.20;94.90;;;;;;5076492;28;20021;-76
2023/01/26 11:10:33;;;;;;;37.75;9.13;;;3.20;94.80;;;;;;5094251;28;20042;-76
2023/01/26 11:13:20;;;;;;;37.47;8.98;;;3.30;94.90;;;;;;5094148;28;20032;-77
2023/01/26 11:15:49;;;;;;;32.67;9.40;;;3.30;94.90;;;;;;5094125;28;20017;-76
2023/01/26 11:18:23;;;;;;;37.60;8.40;;;3.40;95.00;;;;;;5076270;28;20031;-77
2023/01/26 11:21:07;;;;;;;35.53;9.43;;;3.40;95.10;;;;;;5076320;28;20400;-78
2023/01/26 11:23:52;;;;;;;33.47;8.43;;;3.50;95.10;;;;;;5093948;28;20050;-78
2023/01/26 11:26:55;;;;;;;36.05;9.48;;;3.60;95.30;;;;;;5093955;28;20051;-78
2023/01/26 11:29:23;;;;;;;27.73;8.23;;;3.60;95.40;;;;;;5076082;28;20165;-78
2023/01/26 11:31:53;;;;;;;32.03;8.27;;;3.60;95.80;;;;;;5093789;28;20035;-78
2023/01/26 11:34:31;;;;;;;32.75;7.88;;;3.70;95.40;;;;;;5093557;28;20049;-78
2023/01/26 11:37:28;;;;;;;28.42;8.15;;;3.70;95.60;;;;;;5076008;28;20063;-78
2023/01/26 11:40:00;;;;;;;27.27;7.55;;;3.80;95.60;;;;;;5075968;28;20036;-78
2023/01/26 11:42:38;;;;;;;30.23;7.75;;;3.80;95.60;;;;;;5093879;28;20017;-77
2023/01/26 11:45:22;;;;;;;28.40;6.82;;;3.80;95.70;;;;;;5075966;28;20054;-78
2023/01/26 11:48:09;;;;;;;26.65;6.80;;;3.90;95.80;;;;;;5093746;28;20055;-78
2023/01/26 11:50:41;;;;;;;23.98;6.90;;;4.00;95.80;;;;;;5075776;28;20050;-78
2023/01/26 11:53:34;;;;;;;23.85;6.63;;;4.00;96.00;;;;;;5093521;28;20099;-78
2023/01/26 11:56:40;;;;;;;26.25;6.65;;;4.10;95.90;;;;;;5093501;28;20111;-78
2023/01/26 11:59:15;;;;;;;21.30;6.15;;;4.10;96.10;;;;;;5075661;28;20400;-78
2023/01/26 12:01:47;;;;;;;23.77;7.03;;;4.20;95.90;;;;;;5093449;28;20446;-78
2023/01/26 12:04:21;;;;;;;23.85;6.55;;;4.20;96.20;;;;;;5093071;28;20024;-77
2023/01/26 12:06:54;;;;;;;31.33;6.65;;;4.20;96.10;;;;;;5093316;28;20032;-78
2023/01/26 12:09:38;;;;;;;25.30;5.90;;;4.30;96.10;;;;;;5093273;28;20024;-78
2023/01/26 12:12:13;;;;;;;27.88;5.93;;;4.30;96.20;;;;;;5075533;28;20029;-78
2023/01/26 12:14:45;;;;;;;19.80;6.25;;;4.30;96.40;;;;;;5093437;28;20119;-78
2023/01/26 12:17:42;;;;;;;20.90;5.72;;;4.40;96.30;;;;;;5093262;28;20039;-78
2023/01/26 12:20:30;;;;;;;23.05;7.20;;;4.50;96.60;;;;;;5093261;28;20058;-78
2023/01/26 12:23:09;;;;;;;15.45;5.35;;;4.50;97.00;;;;;;5092661;28;20044;-78
2023/01/26 12:25:36;;;;;;;17.35;5.13;;;4.50;96.80;;;;;;5075470;28;20024;-78
2023/01/26 12:28:24;;;;;;;21.80;4.82;;;4.60;97.00;;;;;;5093182;28;20032;-78
2023/01/26 12:31:02;;;;;;;18.80;4.90;;;4.70;96.90;;;;;;5075390;28;20025;-78
2023/01/26 12:33:31;;;;;;;21.88;5.53;;;4.70;97.10;;;;;;5092960;28;20123;-78
2023/01/26 12:36:15;;;;;;;15.60;4.90;;;4.80;97.40;;;;;;5093082;28;20481;-78
2023/01/26 12:39:06;;;;;;;24.00;5.45;;;4.90;97.40;;;;;;5092983;28;20027;-78
2023/01/26 12:41:54;;;;;;;22.65;5.40;;;4.90;97.50;;;;;;5093165;28;20016;-78
2023/01/26 12:44:49;;;;;;;18.42;5.25;;;5.10;97.60;;;;;;5093118;28;20023;-79
2023/01/26 12:47:27;;;;;;;22.45;4.50;;;5.20;97.60;;;;;;5093165;28;20040;-78
2023/01/26 12:49:58;;;;;;;22.70;6.75;;;5.40;97.50;;;;;;5092941;28;20084;-78
2023/01/26 12:52:46;;;;;;;22.07;5.93;;;5.60;97.60;;;;;;5093070;28;20024;-78
2023/01/26 12:55:38;;;;;;;31.20;6.15;;;5.80;97.60;;;;;;5093063;28;20470;-78
2023/01/26 12:58:36;;;;;;;29.52;5.85;;;6.10;97.60;;;;;;5074390;28;20056;-79
2023/01/26 13:01:15;;;;;;;27.50;6.25;;;6.50;97.90;;;;;;5073211;28;20032;-79
2023/01/26 13:03:54;;;;;;;20.75;6.00;;;6.90;97.70;;;;;;5092846;28;20021;-78
2023/01/26 13:06:29;;;;;;;28.55;7.13;;;7.20;97.70;;;;;;5092779;28;20024;-78
2023/01/26 13:08:59;;;;;;;17.42;5.18;;;7.40;96.60;;;;;;5074825;28;20032;-78
2023/01/26 13:11:54;;;;;;;21.55;6.00;;;7.50;96.10;;;;;;5092747;28;20017;-78
2023/01/26 13:14:56;;;;;;;18.55;5.47;;;7.50;95.70;;;;;;5092705;28;20032;-78
2023/01/26 13:17:22;;;;;;;21.75;5.43;;;7.60;95.80;;;;;;5095840;28;20032;-78
2023/01/26 13:19:52;;;;;;;19.80;5.00;;;7.80;95.80;;;;;;5096326;28;20027;-78
2023/01/26 13:22:18;;;;;;;24.38;5.75;;;7.80;95.40;;;;;;5078595;28;20037;-78
2023/01/26 13:24:54;;;;;;;20.20;4.63;;;8.00;95.50;;;;;;5096280;28;20057;-78
2023/01/26 13:27:38;;;;;;;19.52;4.43;;;8.10;95.30;;;;;;5078444;28;20056;-78
2023/01/26 13:30:22;;;;;;;16.33;3.75;;;8.00;95.00;;;;;;5096138;28;20065;-78
2023/01/26 13:32:48;;;;;;;18.02;3.85;;;7.90;94.90;;;;;;5096111;28;20024;-78
2023/01/26 13:35:24;;;;;;;20.33;3.03;;;7.80;94.80;;;;;;5058070;28;20045;-78
2023/01/26 13:37:50;;;;;;;11.18;3.03;;;7.70;94.90;;;;;;5055932;28;20026;-78
2023/01/26 13:40:35;;;;;;;11.60;3.20;;;7.70;95.00;;;;;;5055889;28;20071;-78
2023/01/26 13:43:32;;;;;;;12.80;3.03;;;7.80;95.10;;;;;;5055902;28;20025;-78
2023/01/26 13:46:08;;;;;;;16.08;3.30;;;7.90;95.30;;;;;;5055866;28;20026;-78
2023/01/26 13:48:44;;;;;;;13.35;2.80;;;8.00;95.10;;;;;;5055837;28;20081;-78